sensor_id;sensor_type;location;lat;lon;timestamp;P1;durP1;ratioP1;P2;durP2;ratioP2
28627;SDS011;15815;46.760;19.604;2024-03-08T00:02:54;41.58;;;20.75;;
28627;SDS011;15815;46.760;19.604;2024-03-08T00:05:20;39.90;;;20.00;;
28627;SDS011;15815;46.760;19.604;2024-03-08T00:07:48;37.75;;;19.20;;
28627;SDS011;15815;46.760;19.604;2024-03-08T00:10:17;36.45;;;18.63;;
28627;SDS011;15815;46.760;19.604;2024-03-08T00:12:45;41.28;;;20.10;;
28627;SDS011;15815;46.760;19.604;2024-03-08T00:15:19;37.63;;;19.50;;
28627;SDS011;15815;46.760;19.604;2024-03-08T00:17:45;38.72;;;20.08;;
28627;SDS011;15815;46.760;19.604;2024-03-08T00:20:11;40.28;;;19.70;;
28627;SDS011;15815;46.760;19.604;2024-03-08T00:22:39;37.60;;;20.13;;
28627;SDS011;15815;46.760;19.604;2024-03-08T00:25:05;39.92;;;20.02;;
28627;SDS011;15815;46.760;19.604;2024-03-08T00:27:31;40.67;;;18.30;;
28627;SDS011;15815;46.760;19.604;2024-03-08T00:29:57;41.78;;;19.75;;
28627;SDS011;15815;46.760;19.604;2024-03-08T00:32:23;40.55;;;18.73;;
28627;SDS011;15815;46.760;19.604;2024-03-08T00:34:48;44.58;;;20.17;;
28627;SDS011;15815;46.760;19.604;2024-03-08T00:37:14;38.58;;;20.70;;
28627;SDS011;15815;46.760;19.604;2024-03-08T00:39:53;46.90;;;20.95;;
28627;SDS011;15815;46.760;19.604;2024-03-08T00:42:19;38.35;;;18.35;;
28627;SDS011;15815;46.760;19.604;2024-03-08T00:44:45;41.67;;;20.48;;
28627;SDS011;15815;46.760;19.604;2024-03-08T00:47:20;48.13;;;22.05;;
28627;SDS011;15815;46.760;19.604;2024-03-08T00:49:46;57.47;;;27.42;;
28627;SDS011;15815;46.760;19.604;2024-03-08T00:52:11;41.72;;;20.13;;
28627;SDS011;15815;46.760;19.604;2024-03-08T00:54:44;44.75;;;20.30;;
28627;SDS011;15815;46.760;19.604;2024-03-08T00:57:12;44.47;;;20.73;;
28627;SDS011;15815;46.760;19.604;2024-03-08T00:59:38;53.10;;;25.25;;
28627;SDS011;15815;46.760;19.604;2024-03-08T01:02:04;48.92;;;20.73;;
28627;SDS011;15815;46.760;19.604;2024-03-08T01:04:29;43.20;;;20.85;;
28627;SDS011;15815;46.760;19.604;2024-03-08T01:06:55;43.63;;;19.83;;
28627;SDS011;15815;46.760;19.604;2024-03-08T01:09:22;47.92;;;21.38;;
28627;SDS011;15815;46.760;19.604;2024-03-08T01:11:48;39.70;;;19.45;;
28627;SDS011;15815;46.760;19.604;2024-03-08T01:14:13;43.65;;;19.48;;
28627;SDS011;15815;46.760;19.604;2024-03-08T01:16:39;42.55;;;20.98;;
28627;SDS011;15815;46.760;19.604;2024-03-08T01:19:04;40.00;;;19.63;;
28627;SDS011;15815;46.760;19.604;2024-03-08T01:21:30;44.17;;;21.55;;
28627;SDS011;15815;46.760;19.604;2024-03-08T01:23:56;37.70;;;19.52;;
28627;SDS011;15815;46.760;19.604;2024-03-08T01:26:21;45.85;;;21.48;;
28627;SDS011;15815;46.760;19.604;2024-03-08T01:31:19;42.90;;;20.33;;
28627;SDS011;15815;46.760;19.604;2024-03-08T01:33:45;42.65;;;21.73;;
28627;SDS011;15815;46.760;19.604;2024-03-08T01:36:11;39.20;;;20.00;;
28627;SDS011;15815;46.760;19.604;2024-03-08T01:38:37;42.90;;;22.10;;
28627;SDS011;15815;46.760;19.604;2024-03-08T01:41:02;51.67;;;22.08;;
28627;SDS011;15815;46.760;19.604;2024-03-08T01:43:28;46.38;;;22.85;;
28627;SDS011;15815;46.760;19.604;2024-03-08T01:46:01;45.28;;;23.45;;
28627;SDS011;15815;46.760;19.604;2024-03-08T01:48:30;43.03;;;20.23;;
28627;SDS011;15815;46.760;19.604;2024-03-08T01:53:27;47.03;;;22.23;;
28627;SDS011;15815;46.760;19.604;2024-03-08T01:55:57;44.00;;;21.40;;
28627;SDS011;15815;46.760;19.604;2024-03-08T01:58:23;44.80;;;21.17;;
28627;SDS011;15815;46.760;19.604;2024-03-08T02:00:53;46.40;;;21.73;;
28627;SDS011;15815;46.760;19.604;2024-03-08T02:03:19;41.60;;;20.35;;
28627;SDS011;15815;46.760;19.604;2024-03-08T02:05:45;44.10;;;22.15;;
28627;SDS011;15815;46.760;19.604;2024-03-08T02:08:14;47.38;;;21.58;;
28627;SDS011;15815;46.760;19.604;2024-03-08T02:10:41;47.78;;;22.90;;
28627;SDS011;15815;46.760;19.604;2024-03-08T02:13:11;44.00;;;22.33;;
28627;SDS011;15815;46.760;19.604;2024-03-08T02:18:45;48.65;;;21.88;;
28627;SDS011;15815;46.760;19.604;2024-03-08T02:23:43;56.60;;;23.52;;
28627;SDS011;15815;46.760;19.604;2024-03-08T02:26:09;45.42;;;21.90;;
28627;SDS011;15815;46.760;19.604;2024-03-08T02:28:40;45.83;;;20.83;;
28627;SDS011;15815;46.760;19.604;2024-03-08T02:31:06;45.13;;;21.80;;
28627;SDS011;15815;46.760;19.604;2024-03-08T02:33:31;44.97;;;21.67;;
28627;SDS011;15815;46.760;19.604;2024-03-08T02:36:00;44.22;;;21.23;;
28627;SDS011;15815;46.760;19.604;2024-03-08T02:38:25;43.25;;;22.92;;
28627;SDS011;15815;46.760;19.604;2024-03-08T02:40:51;47.80;;;21.75;;
28627;SDS011;15815;46.760;19.604;2024-03-08T02:43:19;50.67;;;21.20;;
28627;SDS011;15815;46.760;19.604;2024-03-08T02:45:45;41.38;;;20.95;;
28627;SDS011;15815;46.760;19.604;2024-03-08T02:48:21;42.47;;;22.20;;
28627;SDS011;15815;46.760;19.604;2024-03-08T02:50:46;43.05;;;21.30;;
28627;SDS011;15815;46.760;19.604;2024-03-08T02:53:18;45.47;;;21.73;;
28627;SDS011;15815;46.760;19.604;2024-03-08T02:55:44;40.35;;;20.38;;
28627;SDS011;15815;46.760;19.604;2024-03-08T02:58:21;46.42;;;21.85;;
28627;SDS011;15815;46.760;19.604;2024-03-08T03:00:46;47.90;;;21.88;;
28627;SDS011;15815;46.760;19.604;2024-03-08T03:03:13;43.55;;;21.30;;
28627;SDS011;15815;46.760;19.604;2024-03-08T03:05:38;39.03;;;19.83;;
28627;SDS011;15815;46.760;19.604;2024-03-08T03:08:04;40.95;;;21.00;;
28627;SDS011;15815;46.760;19.604;2024-03-08T03:10:31;42.22;;;21.75;;
28627;SDS011;15815;46.760;19.604;2024-03-08T03:12:56;43.50;;;20.48;;
28627;SDS011;15815;46.760;19.604;2024-03-08T03:15:22;41.38;;;19.60;;
28627;SDS011;15815;46.760;19.604;2024-03-08T03:17:48;37.33;;;19.63;;
28627;SDS011;15815;46.760;19.604;2024-03-08T03:20:14;42.00;;;20.48;;
28627;SDS011;15815;46.760;19.604;2024-03-08T03:22:49;47.58;;;20.70;;
28627;SDS011;15815;46.760;19.604;2024-03-08T03:25:15;41.58;;;19.60;;
28627;SDS011;15815;46.760;19.604;2024-03-08T03:27:40;39.80;;;20.13;;
28627;SDS011;15815;46.760;19.604;2024-03-08T03:32:38;45.88;;;21.10;;
28627;SDS011;15815;46.760;19.604;2024-03-08T03:35:04;48.47;;;23.60;;
28627;SDS011;15815;46.760;19.604;2024-03-08T03:39:58;49.85;;;25.20;;
28627;SDS011;15815;46.760;19.604;2024-03-08T03:42:23;42.90;;;21.08;;
28627;SDS011;15815;46.760;19.604;2024-03-08T03:44:49;42.20;;;21.15;;
28627;SDS011;15815;46.760;19.604;2024-03-08T03:47:15;42.88;;;20.33;;
28627;SDS011;15815;46.760;19.604;2024-03-08T03:49:41;48.00;;;21.67;;
28627;SDS011;15815;46.760;19.604;2024-03-08T03:52:16;41.80;;;20.92;;
28627;SDS011;15815;46.760;19.604;2024-03-08T03:54:41;44.30;;;20.88;;
28627;SDS011;15815;46.760;19.604;2024-03-08T03:57:07;45.90;;;21.88;;
28627;SDS011;15815;46.760;19.604;2024-03-08T03:59:32;39.45;;;19.77;;
28627;SDS011;15815;46.760;19.604;2024-03-08T04:01:58;45.88;;;22.90;;
28627;SDS011;15815;46.760;19.604;2024-03-08T04:04:23;47.97;;;23.45;;
28627;SDS011;15815;46.760;19.604;2024-03-08T04:06:49;55.63;;;24.77;;
28627;SDS011;15815;46.760;19.604;2024-03-08T04:09:14;52.63;;;22.90;;
28627;SDS011;15815;46.760;19.604;2024-03-08T04:11:40;49.53;;;23.88;;
28627;SDS011;15815;46.760;19.604;2024-03-08T04:14:05;44.53;;;21.92;;
28627;SDS011;15815;46.760;19.604;2024-03-08T04:16:31;46.80;;;22.42;;
28627;SDS011;15815;46.760;19.604;2024-03-08T04:18:59;45.85;;;23.48;;
28627;SDS011;15815;46.760;19.604;2024-03-08T04:21:25;42.05;;;22.27;;
28627;SDS011;15815;46.760;19.604;2024-03-08T04:23:56;41.50;;;21.42;;
28627;SDS011;15815;46.760;19.604;2024-03-08T04:26:22;42.83;;;20.48;;
28627;SDS011;15815;46.760;19.604;2024-03-08T04:28:48;44.00;;;20.13;;
28627;SDS011;15815;46.760;19.604;2024-03-08T04:34:20;41.30;;;20.73;;
28627;SDS011;15815;46.760;19.604;2024-03-08T04:36:47;39.97;;;20.33;;
28627;SDS011;15815;46.760;19.604;2024-03-08T04:42:06;43.10;;;20.35;;
28627;SDS011;15815;46.760;19.604;2024-03-08T04:44:32;39.05;;;19.85;;
28627;SDS011;15815;46.760;19.604;2024-03-08T04:47:00;38.72;;;20.60;;
28627;SDS011;15815;46.760;19.604;2024-03-08T04:49:25;38.50;;;19.42;;
28627;SDS011;15815;46.760;19.604;2024-03-08T04:51:51;40.17;;;19.60;;
28627;SDS011;15815;46.760;19.604;2024-03-08T04:54:16;36.92;;;18.25;;
28627;SDS011;15815;46.760;19.604;2024-03-08T04:56:42;32.88;;;17.55;;
28627;SDS011;15815;46.760;19.604;2024-03-08T04:59:08;32.17;;;18.02;;
28627;SDS011;15815;46.760;19.604;2024-03-08T05:04:49;37.88;;;17.98;;
28627;SDS011;15815;46.760;19.604;2024-03-08T05:07:18;35.83;;;18.90;;
28627;SDS011;15815;46.760;19.604;2024-03-08T05:12:22;33.92;;;17.40;;
28627;SDS011;15815;46.760;19.604;2024-03-08T05:14:57;34.00;;;18.63;;
28627;SDS011;15815;46.760;19.604;2024-03-08T05:17:22;33.95;;;17.15;;
28627;SDS011;15815;46.760;19.604;2024-03-08T05:19:48;32.80;;;17.15;;
28627;SDS011;15815;46.760;19.604;2024-03-08T05:22:22;38.35;;;18.77;;
28627;SDS011;15815;46.760;19.604;2024-03-08T05:24:47;39.55;;;20.90;;
28627;SDS011;15815;46.760;19.604;2024-03-08T05:27:13;42.33;;;20.42;;
28627;SDS011;15815;46.760;19.604;2024-03-08T05:29:39;60.50;;;30.33;;
28627;SDS011;15815;46.760;19.604;2024-03-08T05:32:04;39.72;;;19.17;;
28627;SDS011;15815;46.760;19.604;2024-03-08T05:34:30;33.13;;;19.08;;
28627;SDS011;15815;46.760;19.604;2024-03-08T05:39:29;38.50;;;22.05;;
28627;SDS011;15815;46.760;19.604;2024-03-08T05:41:55;32.70;;;19.73;;
28627;SDS011;15815;46.760;19.604;2024-03-08T05:47:29;27.02;;;15.00;;
28627;SDS011;15815;46.760;19.604;2024-03-08T05:52:31;24.00;;;13.85;;
28627;SDS011;15815;46.760;19.604;2024-03-08T05:54:56;33.70;;;16.98;;
28627;SDS011;15815;46.760;19.604;2024-03-08T05:57:22;30.13;;;14.68;;
28627;SDS011;15815;46.760;19.604;2024-03-08T05:59:50;25.70;;;14.55;;
28627;SDS011;15815;46.760;19.604;2024-03-08T06:02:15;24.88;;;13.30;;
28627;SDS011;15815;46.760;19.604;2024-03-08T06:04:51;23.25;;;13.55;;
28627;SDS011;15815;46.760;19.604;2024-03-08T06:07:17;24.25;;;13.80;;
28627;SDS011;15815;46.760;19.604;2024-03-08T06:09:43;26.63;;;13.82;;
28627;SDS011;15815;46.760;19.604;2024-03-08T06:12:09;25.58;;;13.55;;
28627;SDS011;15815;46.760;19.604;2024-03-08T06:14:34;28.08;;;14.00;;
28627;SDS011;15815;46.760;19.604;2024-03-08T06:17:03;29.15;;;15.35;;
28627;SDS011;15815;46.760;19.604;2024-03-08T06:19:36;27.67;;;15.73;;
28627;SDS011;15815;46.760;19.604;2024-03-08T06:22:02;26.02;;;14.07;;
28627;SDS011;15815;46.760;19.604;2024-03-08T06:24:27;23.90;;;13.70;;
28627;SDS011;15815;46.760;19.604;2024-03-08T06:26:53;26.08;;;12.95;;
28627;SDS011;15815;46.760;19.604;2024-03-08T06:29:19;23.17;;;12.88;;
28627;SDS011;15815;46.760;19.604;2024-03-08T06:31:44;28.27;;;14.38;;
28627;SDS011;15815;46.760;19.604;2024-03-08T06:34:10;25.48;;;14.07;;
28627;SDS011;15815;46.760;19.604;2024-03-08T06:36:39;27.65;;;14.70;;
28627;SDS011;15815;46.760;19.604;2024-03-08T06:39:05;24.90;;;13.40;;
28627;SDS011;15815;46.760;19.604;2024-03-08T06:41:30;35.97;;;17.98;;
28627;SDS011;15815;46.760;19.604;2024-03-08T06:43:56;29.40;;;16.25;;
28627;SDS011;15815;46.760;19.604;2024-03-08T06:46:21;25.90;;;12.75;;
28627;SDS011;15815;46.760;19.604;2024-03-08T06:48:47;23.67;;;13.13;;
28627;SDS011;15815;46.760;19.604;2024-03-08T06:54:07;24.17;;;12.75;;
28627;SDS011;15815;46.760;19.604;2024-03-08T06:56:32;24.70;;;12.45;;
28627;SDS011;15815;46.760;19.604;2024-03-08T06:58:58;29.23;;;12.52;;
28627;SDS011;15815;46.760;19.604;2024-03-08T07:01:23;22.92;;;12.25;;
28627;SDS011;15815;46.760;19.604;2024-03-08T07:03:49;22.35;;;11.82;;
28627;SDS011;15815;46.760;19.604;2024-03-08T07:06:23;28.55;;;13.18;;
28627;SDS011;15815;46.760;19.604;2024-03-08T07:08:49;23.83;;;11.52;;
28627;SDS011;15815;46.760;19.604;2024-03-08T07:11:15;25.30;;;12.75;;
28627;SDS011;15815;46.760;19.604;2024-03-08T07:13:40;28.42;;;11.38;;
28627;SDS011;15815;46.760;19.604;2024-03-08T07:16:06;22.77;;;12.15;;
28627;SDS011;15815;46.760;19.604;2024-03-08T07:18:31;23.10;;;12.60;;
28627;SDS011;15815;46.760;19.604;2024-03-08T07:20:57;25.23;;;12.45;;
28627;SDS011;15815;46.760;19.604;2024-03-08T07:23:22;25.63;;;12.48;;
28627;SDS011;15815;46.760;19.604;2024-03-08T07:25:48;27.38;;;13.98;;
28627;SDS011;15815;46.760;19.604;2024-03-08T07:28:13;23.42;;;12.48;;
28627;SDS011;15815;46.760;19.604;2024-03-08T07:30:39;25.33;;;12.45;;
28627;SDS011;15815;46.760;19.604;2024-03-08T07:33:05;23.58;;;12.05;;
28627;SDS011;15815;46.760;19.604;2024-03-08T07:35:31;21.38;;;11.75;;
28627;SDS011;15815;46.760;19.604;2024-03-08T07:37:56;23.17;;;12.20;;
28627;SDS011;15815;46.760;19.604;2024-03-08T07:40:22;20.40;;;11.82;;
28627;SDS011;15815;46.760;19.604;2024-03-08T07:42:58;22.17;;;12.38;;
28627;SDS011;15815;46.760;19.604;2024-03-08T07:45:23;21.52;;;12.05;;
28627;SDS011;15815;46.760;19.604;2024-03-08T07:47:49;26.10;;;12.40;;
28627;SDS011;15815;46.760;19.604;2024-03-08T07:50:15;22.45;;;12.13;;
28627;SDS011;15815;46.760;19.604;2024-03-08T07:52:40;21.73;;;11.00;;
28627;SDS011;15815;46.760;19.604;2024-03-08T07:55:06;24.13;;;12.57;;
28627;SDS011;15815;46.760;19.604;2024-03-08T07:57:32;21.60;;;11.98;;
28627;SDS011;15815;46.760;19.604;2024-03-08T07:59:57;19.95;;;10.70;;
28627;SDS011;15815;46.760;19.604;2024-03-08T08:02:23;23.45;;;13.27;;
28627;SDS011;15815;46.760;19.604;2024-03-08T08:04:58;25.33;;;12.45;;
28627;SDS011;15815;46.760;19.604;2024-03-08T08:07:23;22.55;;;11.80;;
28627;SDS011;15815;46.760;19.604;2024-03-08T08:09:49;20.75;;;12.70;;
28627;SDS011;15815;46.760;19.604;2024-03-08T08:14:51;22.52;;;12.15;;
28627;SDS011;15815;46.760;19.604;2024-03-08T08:17:17;28.02;;;13.25;;
28627;SDS011;15815;46.760;19.604;2024-03-08T08:19:43;26.08;;;12.90;;
28627;SDS011;15815;46.760;19.604;2024-03-08T08:22:12;29.90;;;12.60;;
28627;SDS011;15815;46.760;19.604;2024-03-08T08:24:37;25.98;;;11.48;;
28627;SDS011;15815;46.760;19.604;2024-03-08T08:29:38;27.60;;;12.70;;
28627;SDS011;15815;46.760;19.604;2024-03-08T08:32:03;26.15;;;13.10;;
28627;SDS011;15815;46.760;19.604;2024-03-08T08:34:29;22.13;;;11.63;;
28627;SDS011;15815;46.760;19.604;2024-03-08T08:36:55;27.42;;;13.05;;
28627;SDS011;15815;46.760;19.604;2024-03-08T08:39:20;29.27;;;13.23;;
28627;SDS011;15815;46.760;19.604;2024-03-08T08:41:46;24.42;;;13.20;;
28627;SDS011;15815;46.760;19.604;2024-03-08T08:44:11;29.40;;;14.63;;
28627;SDS011;15815;46.760;19.604;2024-03-08T08:49:20;29.70;;;14.18;;
28627;SDS011;15815;46.760;19.604;2024-03-08T08:51:52;30.92;;;14.18;;
28627;SDS011;15815;46.760;19.604;2024-03-08T08:54:18;24.10;;;13.85;;
28627;SDS011;15815;46.760;19.604;2024-03-08T08:59:40;25.60;;;13.38;;
28627;SDS011;15815;46.760;19.604;2024-03-08T09:02:06;26.05;;;12.10;;
28627;SDS011;15815;46.760;19.604;2024-03-08T09:04:38;29.60;;;14.18;;
28627;SDS011;15815;46.760;19.604;2024-03-08T09:09:29;22.27;;;12.73;;
28627;SDS011;15815;46.760;19.604;2024-03-08T09:11:54;26.23;;;12.93;;
28627;SDS011;15815;46.760;19.604;2024-03-08T09:14:20;31.55;;;15.25;;
28627;SDS011;15815;46.760;19.604;2024-03-08T09:16:55;23.63;;;12.55;;
28627;SDS011;15815;46.760;19.604;2024-03-08T09:19:20;25.25;;;12.30;;
28627;SDS011;15815;46.760;19.604;2024-03-08T09:21:46;24.27;;;13.38;;
28627;SDS011;15815;46.760;19.604;2024-03-08T09:24:11;27.42;;;13.57;;
28627;SDS011;15815;46.760;19.604;2024-03-08T09:26:37;25.33;;;13.85;;
28627;SDS011;15815;46.760;19.604;2024-03-08T09:29:03;28.52;;;14.85;;
28627;SDS011;15815;46.760;19.604;2024-03-08T09:31:28;24.77;;;13.63;;
28627;SDS011;15815;46.760;19.604;2024-03-08T09:33:54;23.95;;;13.45;;
28627;SDS011;15815;46.760;19.604;2024-03-08T09:36:19;29.02;;;14.95;;
28627;SDS011;15815;46.760;19.604;2024-03-08T09:41:24;30.95;;;14.25;;
28627;SDS011;15815;46.760;19.604;2024-03-08T09:43:49;31.73;;;14.95;;
28627;SDS011;15815;46.760;19.604;2024-03-08T09:46:18;30.27;;;16.40;;
28627;SDS011;15815;46.760;19.604;2024-03-08T09:48:44;34.58;;;16.63;;
28627;SDS011;15815;46.760;19.604;2024-03-08T09:51:10;24.92;;;13.48;;
28627;SDS011;15815;46.760;19.604;2024-03-08T09:53:36;31.33;;;13.90;;
28627;SDS011;15815;46.760;19.604;2024-03-08T09:56:04;30.02;;;14.48;;
28627;SDS011;15815;46.760;19.604;2024-03-08T09:58:30;29.58;;;15.13;;
28627;SDS011;15815;46.760;19.604;2024-03-08T10:00:57;27.33;;;13.93;;
28627;SDS011;15815;46.760;19.604;2024-03-08T10:03:26;26.90;;;14.80;;
28627;SDS011;15815;46.760;19.604;2024-03-08T10:05:51;36.85;;;17.42;;
28627;SDS011;15815;46.760;19.604;2024-03-08T10:08:19;25.73;;;14.05;;
28627;SDS011;15815;46.760;19.604;2024-03-08T10:10:47;30.13;;;15.98;;
28627;SDS011;15815;46.760;19.604;2024-03-08T10:13:13;32.78;;;15.35;;
28627;SDS011;15815;46.760;19.604;2024-03-08T10:15:40;32.63;;;16.10;;
28627;SDS011;15815;46.760;19.604;2024-03-08T10:18:10;32.30;;;14.80;;
28627;SDS011;15815;46.760;19.604;2024-03-08T10:20:35;34.80;;;15.88;;
28627;SDS011;15815;46.760;19.604;2024-03-08T10:23:04;31.98;;;16.85;;
28627;SDS011;15815;46.760;19.604;2024-03-08T10:25:30;33.63;;;15.98;;
28627;SDS011;15815;46.760;19.604;2024-03-08T10:27:56;34.58;;;15.55;;
28627;SDS011;15815;46.760;19.604;2024-03-08T10:30:22;30.73;;;15.32;;
28627;SDS011;15815;46.760;19.604;2024-03-08T10:32:48;31.45;;;15.30;;
28627;SDS011;15815;46.760;19.604;2024-03-08T10:35:14;30.67;;;14.77;;
28627;SDS011;15815;46.760;19.604;2024-03-08T10:40:47;28.38;;;14.52;;
28627;SDS011;15815;46.760;19.604;2024-03-08T10:43:17;33.10;;;15.93;;
28627;SDS011;15815;46.760;19.604;2024-03-08T10:45:49;29.20;;;14.82;;
28627;SDS011;15815;46.760;19.604;2024-03-08T10:48:31;26.63;;;14.15;;
28627;SDS011;15815;46.760;19.604;2024-03-08T10:50:59;30.15;;;16.20;;
28627;SDS011;15815;46.760;19.604;2024-03-08T10:53:27;27.10;;;13.60;;
28627;SDS011;15815;46.760;19.604;2024-03-08T10:55:53;29.35;;;15.18;;
28627;SDS011;15815;46.760;19.604;2024-03-08T10:58:27;28.83;;;13.90;;
28627;SDS011;15815;46.760;19.604;2024-03-08T11:00:54;23.02;;;13.45;;
28627;SDS011;15815;46.760;19.604;2024-03-08T11:06:15;29.85;;;15.20;;
28627;SDS011;15815;46.760;19.604;2024-03-08T11:08:42;27.05;;;14.05;;
28627;SDS011;15815;46.760;19.604;2024-03-08T11:11:25;33.65;;;16.15;;
28627;SDS011;15815;46.760;19.604;2024-03-08T11:13:54;31.05;;;15.48;;
28627;SDS011;15815;46.760;19.604;2024-03-08T11:16:36;27.77;;;14.93;;
28627;SDS011;15815;46.760;19.604;2024-03-08T11:19:06;26.50;;;14.88;;
28627;SDS011;15815;46.760;19.604;2024-03-08T11:21:56;27.02;;;14.38;;
28627;SDS011;15815;46.760;19.604;2024-03-08T11:24:25;24.27;;;13.32;;
28627;SDS011;15815;46.760;19.604;2024-03-08T11:26:53;29.05;;;14.57;;
28627;SDS011;15815;46.760;19.604;2024-03-08T11:34:48;27.55;;;14.80;;
28627;SDS011;15815;46.760;19.604;2024-03-08T11:37:18;33.67;;;15.38;;
28627;SDS011;15815;46.760;19.604;2024-03-08T11:39:51;27.98;;;15.52;;
28627;SDS011;15815;46.760;19.604;2024-03-08T11:42:48;35.13;;;16.52;;
28627;SDS011;15815;46.760;19.604;2024-03-08T11:45:17;38.20;;;17.42;;
28627;SDS011;15815;46.760;19.604;2024-03-08T11:47:44;34.00;;;17.17;;
28627;SDS011;15815;46.760;19.604;2024-03-08T11:52:39;37.85;;;17.65;;
28627;SDS011;15815;46.760;19.604;2024-03-08T11:55:04;36.50;;;17.88;;
28627;SDS011;15815;46.760;19.604;2024-03-08T11:57:37;36.63;;;19.25;;
28627;SDS011;15815;46.760;19.604;2024-03-08T12:00:03;37.60;;;19.50;;
28627;SDS011;15815;46.760;19.604;2024-03-08T12:02:29;30.73;;;17.05;;
28627;SDS011;15815;46.760;19.604;2024-03-08T12:04:58;46.17;;;20.30;;
28627;SDS011;15815;46.760;19.604;2024-03-08T12:07:25;40.63;;;18.90;;
28627;SDS011;15815;46.760;19.604;2024-03-08T12:12:46;34.40;;;18.30;;
28627;SDS011;15815;46.760;19.604;2024-03-08T12:15:12;36.25;;;18.50;;
28627;SDS011;15815;46.760;19.604;2024-03-08T12:17:37;34.42;;;18.02;;
28627;SDS011;15815;46.760;19.604;2024-03-08T12:22:56;30.83;;;16.83;;
28627;SDS011;15815;46.760;19.604;2024-03-08T12:25:22;33.00;;;18.67;;
28627;SDS011;15815;46.760;19.604;2024-03-08T12:30:50;33.72;;;18.08;;
28627;SDS011;15815;46.760;19.604;2024-03-08T12:33:16;32.65;;;18.00;;
28627;SDS011;15815;46.760;19.604;2024-03-08T12:35:54;38.65;;;18.63;;
28627;SDS011;15815;46.760;19.604;2024-03-08T12:38:21;39.78;;;19.27;;
28627;SDS011;15815;46.760;19.604;2024-03-08T12:40:46;40.90;;;18.95;;
28627;SDS011;15815;46.760;19.604;2024-03-08T12:43:12;36.85;;;18.52;;
28627;SDS011;15815;46.760;19.604;2024-03-08T12:45:37;35.58;;;17.55;;
28627;SDS011;15815;46.760;19.604;2024-03-08T12:48:03;35.33;;;18.92;;
28627;SDS011;15815;46.760;19.604;2024-03-08T12:50:39;36.50;;;19.02;;
28627;SDS011;15815;46.760;19.604;2024-03-08T12:53:04;37.67;;;18.25;;
28627;SDS011;15815;46.760;19.604;2024-03-08T12:58:29;35.70;;;17.92;;
28627;SDS011;15815;46.760;19.604;2024-03-08T13:00:54;42.15;;;19.88;;
28627;SDS011;15815;46.760;19.604;2024-03-08T13:03:20;35.35;;;19.27;;
28627;SDS011;15815;46.760;19.604;2024-03-08T13:05:45;44.25;;;23.58;;
28627;SDS011;15815;46.760;19.604;2024-03-08T13:08:11;42.53;;;21.48;;
28627;SDS011;15815;46.760;19.604;2024-03-08T13:10:36;42.78;;;20.85;;
28627;SDS011;15815;46.760;19.604;2024-03-08T13:13:02;39.83;;;19.17;;
28627;SDS011;15815;46.760;19.604;2024-03-08T13:15:27;42.33;;;20.30;;
28627;SDS011;15815;46.760;19.604;2024-03-08T13:18:03;35.95;;;19.90;;
28627;SDS011;15815;46.760;19.604;2024-03-08T13:20:29;44.67;;;20.27;;
28627;SDS011;15815;46.760;19.604;2024-03-08T13:22:54;48.05;;;23.65;;
28627;SDS011;15815;46.760;19.604;2024-03-08T13:25:21;47.38;;;23.27;;
28627;SDS011;15815;46.760;19.604;2024-03-08T13:27:46;49.47;;;23.40;;
28627;SDS011;15815;46.760;19.604;2024-03-08T13:30:12;47.63;;;22.23;;
28627;SDS011;15815;46.760;19.604;2024-03-08T13:32:39;42.58;;;22.27;;
28627;SDS011;15815;46.760;19.604;2024-03-08T13:35:07;51.83;;;23.73;;
28627;SDS011;15815;46.760;19.604;2024-03-08T13:37:33;48.22;;;21.48;;
28627;SDS011;15815;46.760;19.604;2024-03-08T13:39:58;49.13;;;21.80;;
28627;SDS011;15815;46.760;19.604;2024-03-08T13:42:24;47.50;;;21.45;;
28627;SDS011;15815;46.760;19.604;2024-03-08T13:44:49;49.90;;;22.02;;
28627;SDS011;15815;46.760;19.604;2024-03-08T13:47:15;53.83;;;24.05;;
28627;SDS011;15815;46.760;19.604;2024-03-08T13:49:41;52.78;;;23.77;;
28627;SDS011;15815;46.760;19.604;2024-03-08T13:52:07;46.80;;;22.63;;
28627;SDS011;15815;46.760;19.604;2024-03-08T13:54:32;50.88;;;24.10;;
28627;SDS011;15815;46.760;19.604;2024-03-08T13:57:01;44.90;;;22.67;;
28627;SDS011;15815;46.760;19.604;2024-03-08T13:59:27;41.65;;;22.27;;
28627;SDS011;15815;46.760;19.604;2024-03-08T14:01:53;49.17;;;22.63;;
28627;SDS011;15815;46.760;19.604;2024-03-08T14:04:18;46.80;;;22.83;;
28627;SDS011;15815;46.760;19.604;2024-03-08T14:06:44;50.85;;;22.38;;
28627;SDS011;15815;46.760;19.604;2024-03-08T14:09:09;49.67;;;25.63;;
28627;SDS011;15815;46.760;19.604;2024-03-08T14:11:35;46.63;;;24.02;;
28627;SDS011;15815;46.760;19.604;2024-03-08T14:14:01;52.92;;;24.10;;
28627;SDS011;15815;46.760;19.604;2024-03-08T14:16:27;47.55;;;23.30;;
28627;SDS011;15815;46.760;19.604;2024-03-08T14:18:52;46.63;;;23.38;;
28627;SDS011;15815;46.760;19.604;2024-03-08T14:21:18;60.67;;;27.15;;
28627;SDS011;15815;46.760;19.604;2024-03-08T14:23:43;87.38;;;34.80;;
28627;SDS011;15815;46.760;19.604;2024-03-08T14:26:09;44.65;;;23.02;;
28627;SDS011;15815;46.760;19.604;2024-03-08T14:28:42;47.08;;;22.35;;
28627;SDS011;15815;46.760;19.604;2024-03-08T14:31:07;52.92;;;24.13;;
28627;SDS011;15815;46.760;19.604;2024-03-08T14:33:33;46.28;;;23.00;;
28627;SDS011;15815;46.760;19.604;2024-03-08T14:35:59;54.35;;;23.63;;
28627;SDS011;15815;46.760;19.604;2024-03-08T14:38:24;51.50;;;24.05;;
28627;SDS011;15815;46.760;19.604;2024-03-08T14:40:50;52.60;;;23.70;;
28627;SDS011;15815;46.760;19.604;2024-03-08T14:43:16;59.75;;;23.23;;
28627;SDS011;15815;46.760;19.604;2024-03-08T14:45:42;50.22;;;23.52;;
28627;SDS011;15815;46.760;19.604;2024-03-08T14:48:08;61.92;;;23.80;;
28627;SDS011;15815;46.760;19.604;2024-03-08T14:50:45;50.90;;;22.60;;
28627;SDS011;15815;46.760;19.604;2024-03-08T14:53:10;53.45;;;23.90;;
28627;SDS011;15815;46.760;19.604;2024-03-08T14:55:36;55.75;;;22.98;;
28627;SDS011;15815;46.760;19.604;2024-03-08T14:58:04;63.88;;;23.38;;
28627;SDS011;15815;46.760;19.604;2024-03-08T15:00:29;56.38;;;23.13;;
28627;SDS011;15815;46.760;19.604;2024-03-08T15:02:55;52.83;;;22.77;;
28627;SDS011;15815;46.760;19.604;2024-03-08T15:05:24;44.03;;;21.88;;
28627;SDS011;15815;46.760;19.604;2024-03-08T15:07:50;44.92;;;21.83;;
28627;SDS011;15815;46.760;19.604;2024-03-08T15:10:17;61.58;;;22.77;;
28627;SDS011;15815;46.760;19.604;2024-03-08T15:12:44;103.28;;;36.50;;
28627;SDS011;15815;46.760;19.604;2024-03-08T15:15:11;103.95;;;41.47;;
28627;SDS011;15815;46.760;19.604;2024-03-08T15:17:37;86.80;;;37.08;;
28627;SDS011;15815;46.760;19.604;2024-03-08T15:20:03;57.72;;;26.33;;
28627;SDS011;15815;46.760;19.604;2024-03-08T15:22:29;57.05;;;25.65;;
28627;SDS011;15815;46.760;19.604;2024-03-08T15:24:55;51.88;;;24.85;;
28627;SDS011;15815;46.760;19.604;2024-03-08T15:27:21;58.70;;;25.35;;
28627;SDS011;15815;46.760;19.604;2024-03-08T15:29:46;51.83;;;22.52;;